Time;durP1;ratioP1;P1;durP2;ratioP2;P2;SDS_P1;SDS_P2;PMS_P1;PMS_P2;Temp;Humidity;BMP_temperature;BMP_pressure;BME280_temperature;BME280_humidity;BME280_pressure;Samples;Min_cycle;Max_cycle;Signal;HPM_P1;HPM_P2
2023/10/20 00:00:06;;;;;;;0.00;0.00;;;;;;;13.82;100.00;96736.25;4941228;28;20486;-74
2023/10/20 00:02:35;;;;;;;0.00;0.00;;;;;;;13.81;100.00;96726.44;4941417;28;20035;-73
2023/10/20 00:05:06;;;;;;;0.00;0.00;;;;;;;13.74;100.00;96708.72;4930550;29;20023;-73
2023/10/20 00:07:32;;;;;;;0.00;0.00;;;;;;;13.75;100.00;96724.00;4942847;28;20430;-73
2023/10/20 00:09:57;;;;;;;0.00;0.00;;;;;;;13.76;100.00;96722.84;4944413;29;20039;-73
2023/10/20 00:12:23;;;;;;;0.00;0.00;;;;;;;13.70;100.00;96718.88;4943445;28;20038;-74
2023/10/20 00:14:48;;;;;;;0.00;0.00;;;;;;;13.72;100.00;96722.03;4944100;28;20537;-72
2023/10/20 00:17:14;;;;;;;0.00;0.00;;;;;;;13.75;100.00;96732.25;4935847;29;20122;-74
2023/10/20 00:19:39;;;;;;;0.00;0.00;;;;;;;13.74;100.00;96725.19;4941121;29;20062;-73
2023/10/20 00:22:05;;;;;;;0.00;0.00;;;;;;;13.80;100.00;96728.38;4961082;28;20024;-74
2023/10/20 00:24:30;;;;;;;0.00;0.00;;;;;;;13.82;100.00;96719.78;4925866;29;20027;-73
2023/10/20 00:26:56;;;;;;;0.00;0.00;;;;;;;13.86;100.00;96715.13;4942820;28;20438;-74
2023/10/20 00:29:22;;;;;;;0.00;0.00;;;;;;;13.87;100.00;96711.19;4926682;29;20394;-74
2023/10/20 00:31:47;;;;;;;0.00;0.00;;;;;;;13.91;100.00;96709.25;4938402;29;20114;-74
2023/10/20 00:34:13;;;;;;;0.00;0.00;;;;;;;13.90;100.00;96699.44;4944103;28;20090;-73
2023/10/20 00:36:38;;;;;;;0.00;0.00;;;;;;;13.87;100.00;96689.22;4945401;28;20405;-73
2023/10/20 00:39:06;;;;;;;0.00;0.00;;;;;;;13.98;100.00;96705.78;4948385;28;20039;-73
2023/10/20 00:41:34;;;;;;;0.00;0.00;;;;;;;13.96;100.00;96700.69;4962305;28;20035;-73
2023/10/20 00:44:00;;;;;;;0.00;0.00;;;;;;;13.98;100.00;96701.09;4944335;28;20030;-73
2023/10/20 00:46:28;;;;;;;0.00;0.00;;;;;;;13.96;100.00;96698.72;4940345;29;20023;-73
2023/10/20 00:48:53;;;;;;;0.00;0.00;;;;;;;13.92;100.00;96689.66;4966284;28;20111;-73
2023/10/20 00:51:19;;;;;;;0.00;0.00;;;;;;;13.95;100.00;96691.63;4954911;28;20119;-73
2023/10/20 00:53:45;;;;;;;0.00;0.00;;;;;;;13.98;100.00;96692.84;4955599;28;20114;-73
2023/10/20 00:56:11;;;;;;;0.00;0.00;;;;;;;13.96;100.00;96684.22;4953506;28;20130;-73
2023/10/20 00:58:37;;;;;;;0.00;0.00;;;;;;;13.99;100.00;96686.19;4943901;28;20133;-73
2023/10/20 01:01:04;;;;;;;0.00;0.00;;;;;;;13.96;100.00;96681.47;4947083;28;20417;-73
2023/10/20 01:03:32;;;;;;;0.00;0.00;;;;;;;13.99;100.00;96674.38;4947583;28;20035;-73
2023/10/20 01:05:58;;;;;;;0.00;0.00;;;;;;;13.99;100.00;96675.19;4939734;29;20027;-72
2023/10/20 01:08:23;;;;;;;0.00;0.00;;;;;;;14.01;100.00;96678.34;4937326;28;20102;-73
2023/10/20 01:10:48;;;;;;;0.00;0.00;;;;;;;14.01;100.00;96683.84;4924381;29;20791;-74
2023/10/20 01:13:14;;;;;;;0.00;0.00;;;;;;;14.02;100.00;96690.13;4941990;28;20035;-73
2023/10/20 01:15:41;;;;;;;0.00;0.00;;;;;;;13.98;100.00;96679.09;4940012;29;20027;-73
2023/10/20 01:18:09;;;;;;;0.00;0.00;;;;;;;13.99;100.00;96683.44;4941043;28;20110;-73
2023/10/20 01:20:34;;;;;;;0.00;0.00;;;;;;;14.03;100.00;96681.53;4948486;29;20086;-73
2023/10/20 01:23:01;;;;;;;0.00;0.00;;;;;;;14.04;100.00;96680.31;4946290;28;20465;-72
2023/10/20 01:25:27;;;;;;;0.00;0.00;;;;;;;14.01;100.00;96667.34;4957701;28;20032;-73
2023/10/20 01:27:53;;;;;;;0.00;0.00;;;;;;;13.99;100.00;96674.38;4950435;28;20405;-73
2023/10/20 01:30:18;;;;;;;0.00;0.00;;;;;;;13.96;100.00;96671.25;4944464;28;20031;-73
2023/10/20 01:32:44;;;;;;;0.00;0.00;;;;;;;13.93;100.00;96663.78;4927677;29;20034;-72
2023/10/20 01:35:10;;;;;;;0.00;0.00;;;;;;;13.87;100.00;96664.50;4938247;29;20852;-73
2023/10/20 01:37:35;;;;;;;0.00;0.00;;;;;;;13.88;100.00;96660.59;4943717;28;22040;-72
2023/10/20 01:40:00;;;;;;;0.00;0.00;;;;;;;13.82;100.00;96660.13;4931615;29;20051;-73
2023/10/20 01:42:26;;;;;;;0.00;0.00;;;;;;;13.80;100.00;96659.75;4954713;28;20126;-73
2023/10/20 01:44:51;;;;;;;0.00;0.00;;;;;;;13.81;100.00;96663.28;4957452;28;20078;-71
2023/10/20 01:47:17;;;;;;;0.00;0.00;;;;;;;13.78;100.00;96654.63;4941339;29;20483;-72
2023/10/20 01:49:42;;;;;;;0.00;0.00;;;;;;;13.75;100.00;96644.38;4946901;28;20482;-75
2023/10/20 01:52:07;;;;;;;0.00;0.00;;;;;;;13.74;100.00;96640.09;4946538;29;20051;-73
2023/10/20 01:54:33;;;;;;;0.00;0.00;;;;;;;13.73;100.00;96635.75;4944258;28;20970;-72
2023/10/20 01:56:58;;;;;;;0.00;0.00;;;;;;;13.67;100.00;96620.81;4943509;29;20089;-74
2023/10/20 01:59:24;;;;;;;0.00;0.00;;;;;;;13.65;100.00;96625.09;4917637;29;20138;-72
2023/10/20 02:01:49;;;;;;;0.00;0.00;;;;;;;13.60;100.00;96626.22;4948111;29;20041;-73
2023/10/20 02:04:17;;;;;;;0.00;0.00;;;;;;;13.55;100.00;96618.31;4942875;28;20024;-73
2023/10/20 02:06:43;;;;;;;0.00;0.00;;;;;;;13.52;100.00;96616.34;4944120;28;20035;-72
2023/10/20 02:09:09;;;;;;;0.00;0.00;;;;;;;13.50;100.00;96610.44;4937179;28;20486;-73
2023/10/20 02:11:36;;;;;;;0.00;0.00;;;;;;;13.41;100.00;96606.06;4943494;29;20702;-73
2023/10/20 02:14:01;;;;;;;0.00;0.00;;;;;;;13.36;100.00;96600.94;4922899;28;20036;-72
2023/10/20 02:16:28;;;;;;;0.00;0.00;;;;;;;13.36;100.00;96606.41;4944091;28;20023;-72
2023/10/20 02:18:53;;;;;;;0.00;0.00;;;;;;;13.37;100.00;96607.19;4921075;29;20680;-72
2023/10/20 02:21:19;;;;;;;0.00;0.00;;;;;;;13.41;100.00;96608.78;4925065;29;20082;-72
2023/10/20 02:23:44;;;;;;;0.00;0.00;;;;;;;13.45;100.00;96611.59;4946896;28;20169;-73
2023/10/20 02:26:10;;;;;;;0.00;0.00;;;;;;;13.54;100.00;96611.28;4942644;28;20061;-73
2023/10/20 02:28:36;;;;;;;0.00;0.00;;;;;;;13.57;100.00;96605.03;4948269;29;20121;-72
2023/10/20 02:31:11;;;;;;;0.00;0.00;;;;;;;13.62;100.00;96601.91;4939155;29;20035;-73
2023/10/20 02:33:36;;;;;;;0.00;0.00;;;;;;;13.64;100.00;96587.81;4940161;29;20709;-72
2023/10/20 02:36:02;;;;;;;0.00;0.00;;;;;;;13.69;100.00;96595.72;4941680;28;20039;-71
2023/10/20 02:38:27;;;;;;;0.00;0.00;;;;;;;13.67;100.00;96582.38;4937398;29;20654;-72
2023/10/20 02:40:54;;;;;;;0.00;0.00;;;;;;;13.64;100.00;96580.38;4945287;29;20038;-72
2023/10/20 02:43:22;;;;;;;0.00;0.00;;;;;;;13.63;100.00;96578.81;4935032;28;20039;-71
2023/10/20 02:45:52;;;;;;;0.00;0.00;;;;;;;13.61;100.00;96575.66;4939524;28;20062;-73
2023/10/20 02:48:18;;;;;;;0.00;0.00;;;;;;;13.59;100.00;96569.75;4957403;28;20114;-72
2023/10/20 02:50:43;;;;;;;0.00;0.00;;;;;;;13.59;100.00;96569.75;4942302;29;20113;-73
2023/10/20 02:53:09;;;;;;;0.00;0.00;;;;;;;13.54;100.00;96559.13;4931264;28;20062;-72
2023/10/20 02:55:34;;;;;;;0.00;0.00;;;;;;;13.53;100.00;96552.06;4905553;29;20032;-72
2023/10/20 02:58:00;;;;;;;0.00;0.00;;;;;;;13.55;100.00;96552.44;4891472;29;20043;-73
2023/10/20 03:00:27;;;;;;;0.00;0.00;;;;;;;13.59;100.00;96548.59;4907045;29;20040;-72
2023/10/20 03:02:53;;;;;;;0.00;0.00;;;;;;;13.55;100.00;96541.47;4928179;29;20039;-72
2023/10/20 03:05:20;;;;;;;0.00;0.00;;;;;;;13.57;100.00;96536.41;4905162;29;20051;-72
2023/10/20 03:07:49;;;;;;;0.00;0.00;;;;;;;13.54;100.00;96526.19;4908250;29;20111;-73
2023/10/20 03:10:15;;;;;;;0.00;0.00;;;;;;;13.51;100.00;96524.22;4916000;29;20032;-73
2023/10/20 03:12:40;;;;;;;0.00;0.00;;;;;;;13.52;100.00;96531.25;4906869;29;20065;-74
2023/10/20 03:15:11;;;;;;;0.00;0.00;;;;;;;13.49;100.00;96526.53;4919230;29;20032;-73
2023/10/20 03:17:36;;;;;;;0.00;0.00;;;;;;;13.46;100.00;96516.31;4928422;29;20048;-73
2023/10/20 03:20:07;;;;;;;0.00;0.00;;;;;;;13.42;100.00;96514.34;4903744;29;20621;-72
2023/10/20 03:22:33;;;;;;;0.00;0.00;;;;;;;13.40;100.00;96513.94;4891068;29;20067;-72
2023/10/20 03:24:58;;;;;;;0.00;0.00;;;;;;;13.31;100.00;96499.72;4888844;29;20070;-73
2023/10/20 03:27:24;;;;;;;0.00;0.00;;;;;;;13.29;100.00;96507.53;4919281;29;20463;-72
2023/10/20 03:29:50;;;;;;;0.00;0.00;;;;;;;13.22;100.00;96508.25;4924821;29;20023;-73
2023/10/20 03:32:15;;;;;;;0.00;0.00;;;;;;;13.15;100.00;96512.91;4907727;29;20082;-72
2023/10/20 03:34:41;;;;;;;0.00;0.00;;;;;;;13.12;100.00;96513.66;4926744;29;20475;-71
2023/10/20 03:37:06;;;;;;;0.00;0.00;;;;;;;13.10;100.00;96514.81;4888230;29;20111;-73
2023/10/20 03:39:34;;;;;;;0.00;0.00;;;;;;;12.86;100.00;96479.72;4921865;29;20122;-73
2023/10/20 03:42:02;;;;;;;0.00;0.00;;;;;;;13.04;100.00;96508.13;4904879;29;20158;-72
2023/10/20 03:44:27;;;;;;;0.00;0.00;;;;;;;13.01;100.00;96508.88;4872477;29;20387;-72
2023/10/20 03:46:56;;;;;;;0.00;0.00;;;;;;;12.97;100.00;96512.75;4925112;29;20019;-72
2023/10/20 03:49:22;;;;;;;0.00;0.00;;;;;;;12.89;100.00;96506.38;4920480;29;20090;-72
2023/10/20 03:51:51;;;;;;;0.00;0.00;;;;;;;12.87;100.00;96504.03;4902857;28;20019;-73
2023/10/20 03:54:17;;;;;;;0.00;0.00;;;;;;;12.82;100.00;96509.06;4921904;29;20032;-72
2023/10/20 03:56:43;;;;;;;0.00;0.00;;;;;;;12.79;100.00;96501.59;4915492;29;20036;-73
2023/10/20 03:59:09;;;;;;;0.00;0.00;;;;;;;12.69;100.00;96497.59;4906882;29;20039;-72
2023/10/20 04:01:35;;;;;;;0.00;0.00;;;;;;;12.65;100.00;96492.06;4902352;29;20039;-71
2023/10/20 04:04:00;;;;;;;0.00;0.00;;;;;;;12.66;100.00;96490.91;4912407;29;20150;-72
2023/10/20 04:06:26;;;;;;;0.00;0.00;;;;;;;12.65;100.00;96481.09;4908459;29;20059;-72
2023/10/20 04:08:51;;;;;;;0.00;0.00;;;;;;;12.63;100.00;96488.91;4905347;29;20043;-73
2023/10/20 04:11:17;;;;;;;0.00;0.00;;;;;;;12.62;100.00;96476.38;4920834;29;20039;-72
2023/10/20 04:13:43;;;;;;;0.00;0.00;;;;;;;12.68;100.00;96485.06;4916867;29;20038;-72
2023/10/20 04:16:12;;;;;;;0.00;0.00;;;;;;;12.74;100.00;96487.06;4908703;29;20472;-72
2023/10/20 04:18:40;;;;;;;0.00;0.00;;;;;;;12.81;100.00;96493.78;4926509;29;20364;-73
2023/10/20 04:21:06;;;;;;;0.00;0.00;;;;;;;12.82;100.00;96478.91;4928718;29;20036;-72
2023/10/20 04:23:31;;;;;;;0.00;0.00;;;;;;;12.81;100.00;96475.38;4932494;29;20027;-73
2023/10/20 04:25:58;;;;;;;0.00;0.00;;;;;;;12.82;100.00;96462.47;4909826;29;20056;-72
2023/10/20 04:28:38;;;;;;;0.00;0.00;;;;;;;12.75;100.00;96447.53;4911634;29;20040;-73
2023/10/20 04:42:52;;;;;;;0.00;0.00;;;;;;;12.66;100.00;96465.44;4923293;29;20428;-72
2023/10/20 04:56:31;;;;;;;0.00;0.00;;;;;;;12.48;100.00;96449.59;4929968;28;20051;-73
2023/10/20 04:58:59;;;;;;;0.00;0.00;;;;;;;12.51;100.00;96459.03;4944820;29;20074;-72
2023/10/20 05:01:47;;;;;;;0.00;0.00;;;;;;;12.44;100.00;96434.28;4910165;29;20122;-73
2023/10/20 05:04:36;;;;;;;0.00;0.00;;;;;;;12.50;100.00;96454.69;4940746;29;20027;-73
2023/10/20 05:07:05;;;;;;;0.00;0.00;;;;;;;12.47;100.00;96459.00;4946188;28;20059;-73
2023/10/20 05:09:32;;;;;;;0.00;0.00;;;;;;;12.51;100.00;96469.97;4942615;28;20045;-72
2023/10/20 05:11:58;;;;;;;0.00;0.00;;;;;;;12.52;100.00;96477.81;4943651;28;20057;-74
2023/10/20 05:14:23;;;;;;;0.00;0.00;;;;;;;12.56;100.00;96475.16;4942247;29;20394;-74
2023/10/20 05:16:48;;;;;;;0.00;0.00;;;;;;;12.60;100.00;96475.16;4942853;29;20258;-74
2023/10/20 05:19:14;;;;;;;0.00;0.00;;;;;;;12.61;100.00;96457.56;4943145;28;20038;-73
2023/10/20 05:21:39;;;;;;;0.00;0.00;;;;;;;12.57;100.00;96458.31;4921501;29;20035;-73
2023/10/20 05:24:05;;;;;;;0.00;0.00;;;;;;;12.59;100.00;96455.19;4913489;29;20372;-75
2023/10/20 05:26:31;;;;;;;0.00;0.00;;;;;;;12.58;100.00;96465.34;4957273;28;20031;-73
2023/10/20 05:28:58;;;;;;;0.00;0.00;;;;;;;12.58;100.00;96459.09;4945936;28;20033;-72
2023/10/20 05:31:25;;;;;;;0.00;0.00;;;;;;;12.57;100.00;96457.50;4914444;29;20035;-73
2023/10/20 05:33:51;;;;;;;0.00;0.00;;;;;;;12.62;100.00;96467.38;4944516;29;20038;-73
2023/10/20 05:36:16;;;;;;;0.00;0.00;;;;;;;12.60;100.00;96455.97;4941107;29;20439;-73
2023/10/20 05:38:41;;;;;;;0.00;0.00;;;;;;;12.63;100.00;96461.50;4943396;28;20449;-73
2023/10/20 05:41:07;;;;;;;0.00;0.00;;;;;;;12.62;100.00;96459.94;4928400;29;20049;-73
2023/10/20 05:43:32;;;;;;;0.00;0.00;;;;;;;12.56;100.00;96445.00;4925288;28;20038;-73
2023/10/20 05:45:57;;;;;;;0.00;0.00;;;;;;;12.59;100.00;96455.19;4927514;29;20037;-73
2023/10/20 05:48:23;;;;;;;0.00;0.00;;;;;;;12.59;100.00;96449.72;4942566;28;20031;-73
2023/10/20 05:50:57;;;;;;;0.00;0.00;;;;;;;12.53;100.00;96432.84;4960411;28;20047;-73
2023/10/20 05:53:26;;;;;;;;;;;;;;;12.60;100.00;96445.03;4933996;28;20159;-72
2023/10/20 05:55:52;;;;;;;0.00;0.00;;;;;;;12.60;100.00;96440.34;4944907;28;19945;-74
2023/10/20 05:58:17;;;;;;;0.00;0.00;;;;;;;12.57;100.00;96419.16;4940797;28;20478;-73
2023/10/20 06:00:43;;;;;;;0.00;0.00;;;;;;;12.55;100.00;96416.00;4945314;28;20031;-73
2023/10/20 06:03:09;;;;;;;0.00;0.00;;;;;;;12.55;100.00;96416.00;4959679;28;20027;-73
2023/10/20 06:05:35;;;;;;;0.00;0.00;;;;;;;12.55;100.00;96418.75;4937384;28;20024;-74
2023/10/20 06:08:00;;;;;;;0.00;0.00;;;;;;;12.51;100.00;96406.97;4943319;29;20054;-71
2023/10/20 06:10:26;;;;;;;0.00;0.00;;;;;;;12.51;100.00;96409.69;4940302;28;20561;-72
2023/10/20 06:12:53;;;;;;;0.00;0.00;;;;;;;12.56;100.00;96417.59;4945022;29;20473;-72
2023/10/20 06:15:21;;;;;;;0.00;0.00;;;;;;;12.49;100.00;96417.53;4953840;28;20110;-72
2023/10/20 06:17:51;;;;;;;0.00;0.00;;;;;;;12.46;100.00;96421.03;4945111;28;20046;-74
2023/10/20 06:20:17;;;;;;;0.00;0.00;;;;;;;12.46;100.00;96432.75;4939765;28;20027;-72
2023/10/20 06:22:42;;;;;;;0.00;0.00;;;;;;;12.34;100.00;96422.84;4947583;29;20031;-74
2023/10/20 06:25:14;;;;;;;0.00;0.00;;;;;;;12.28;100.00;96432.56;4943684;28;20030;-73
2023/10/20 06:27:43;;;;;;;0.00;0.00;;;;;;;12.22;100.00;96425.84;4957200;28;20458;-74
2023/10/20 06:30:16;;;;;;;0.00;0.00;;;;;;;12.08;100.00;96421.00;4941574;29;20319;-75
2023/10/20 06:32:43;;;;;;;0.00;0.00;;;;;;;12.03;100.00;96424.06;4940387;29;20030;-75
2023/10/20 06:35:13;;;;;;;0.00;0.00;;;;;;;11.92;100.00;96434.09;4940443;29;20039;-76
2023/10/20 06:40:08;;;;;;;0.00;0.00;;;;;;;11.74;100.00;96433.84;4946072;28;20076;-75
2023/10/20 06:42:33;;;;;;;0.00;0.00;;;;;;;11.69;100.00;96440.44;4954815;28;20462;-76
2023/10/20 06:45:02;;;;;;;0.00;0.00;;;;;;;11.75;100.00;96452.63;4941519;28;20023;-75
2023/10/20 06:47:27;;;;;;;0.00;0.00;;;;;;;11.86;100.00;96461.75;4937052;28;20210;-74
2023/10/20 06:49:53;;;;;;;0.00;0.00;;;;;;;11.94;100.00;96454.47;4940661;28;20562;-75
2023/10/20 06:52:18;;;;;;;0.00;0.00;;;;;;;11.91;100.00;96446.97;4923030;29;20051;-75
2023/10/20 06:54:48;;;;;;;0.00;0.00;;;;;;;12.03;100.00;96456.91;4930822;29;20034;-76
2023/10/20 06:57:14;;;;;;;0.00;0.00;;;;;;;12.08;100.00;96461.28;4958636;28;20486;-74
2023/10/20 06:59:49;;;;;;;0.00;0.00;;;;;;;11.93;100.00;96431.00;4955322;28;20043;-77
2023/10/20 07:02:14;;;;;;;0.10;0.10;;;;;;;12.07;100.00;96456.97;4937149;29;20030;-75
2023/10/20 07:04:41;;;;;;;0.00;0.00;;;;;;;12.02;100.00;96455.34;4938296;29;20028;-75
2023/10/20 07:07:11;;;;;;;0.00;0.00;;;;;;;12.03;100.00;96460.47;4923686;29;20114;-75
2023/10/20 07:09:37;;;;;;;0.00;0.00;;;;;;;12.02;100.00;96461.59;4957515;28;20038;-74
2023/10/20 07:12:06;;;;;;;0.00;0.00;;;;;;;12.14;100.00;96473.50;4918334;29;20105;-75
2023/10/20 07:14:33;;;;;;;0.00;0.00;;;;;;;12.22;100.00;96477.88;4932260;28;20493;-74
2023/10/20 07:17:01;;;;;;;0.00;0.00;;;;;;;12.42;100.00;96488.69;4939316;29;20045;-75
2023/10/20 07:19:26;;;;;;;0.00;0.00;;;;;;;12.56;100.00;96466.91;4936670;29;20083;-75
2023/10/20 07:21:53;;;;;;;0.00;0.00;;;;;;;13.42;100.00;96467.69;4926967;29;20474;-76
2023/10/20 07:24:19;;;;;;;0.00;0.00;;;;;;;14.69;100.00;96469.09;4924094;29;20066;-76
2023/10/20 07:26:45;;;;;;;0.00;0.00;;;;;;;15.48;100.00;96458.09;4939606;28;20067;-75
2023/10/20 07:29:17;;;;;;;0.00;0.00;;;;;;;15.87;98.20;96451.78;4915909;29;20039;-74
2023/10/20 07:31:47;;;;;;;0.00;0.00;;;;;;;15.61;93.17;96446.66;4922845;29;20117;-74
2023/10/20 07:34:13;;;;;;;0.00;0.00;;;;;;;14.96;95.35;96443.97;4942465;28;20085;-76
2023/10/20 07:36:38;;;;;;;0.00;0.00;;;;;;;14.46;98.09;96450.91;4939451;29;20031;-75
2023/10/20 07:39:04;;;;;;;0.00;0.00;;;;;;;13.96;100.00;96456.25;4942974;29;20043;-75
2023/10/20 07:41:29;;;;;;;0.00;0.00;;;;;;;13.70;100.00;96463.56;4933454;28;20034;-76
2023/10/20 07:43:56;;;;;;;0.00;0.00;;;;;;;13.36;100.00;96452.75;4941073;29;20035;-74
2023/10/20 07:46:22;;;;;;;0.00;0.00;;;;;;;13.33;100.00;96461.72;4938638;29;20035;-74
2023/10/20 07:48:47;;;;;;;0.00;0.00;;;;;;;13.38;100.00;96458.63;4940937;28;20031;-75
2023/10/20 07:51:13;;;;;;;0.00;0.00;;;;;;;13.60;100.00;96456.03;4944779;29;20027;-74
2023/10/20 07:53:40;;;;;;;0.00;0.00;;;;;;;13.90;100.00;96463.25;4941895;28;20734;-74
2023/10/20 07:56:06;;;;;;;0.00;0.00;;;;;;;14.30;100.00;96436.75;4945992;28;20046;-74
2023/10/20 07:58:35;;;;;;;0.00;0.00;;;;;;;15.34;100.00;96474.63;4939752;29;20032;-74
2023/10/20 08:01:03;;;;;;;0.00;0.00;;;;;;;16.17;96.91;96480.78;4940193;28;20782;-74
2023/10/20 08:03:28;;;;;;;0.00;0.00;;;;;;;17.42;89.75;96470.22;4943104;28;20491;-74
2023/10/20 08:05:55;;;;;;;0.00;0.00;;;;;;;18.16;81.43;96468.31;4932712;28;20055;-74
2023/10/20 08:08:23;;;;;;;0.00;0.00;;;;;;;17.65;80.67;96465.28;4943161;28;20371;-74
2023/10/20 08:10:56;;;;;;;0.00;0.00;;;;;;;17.32;82.95;96473.03;4947454;29;20027;-75
2023/10/20 08:13:24;;;;;;;0.00;0.00;;;;;;;16.92;83.98;96474.16;4942491;29;20592;-74
2023/10/20 08:15:49;;;;;;;0.00;0.00;;;;;;;16.44;86.44;96472.03;4927481;29;20043;-75
2023/10/20 08:18:16;;;;;;;0.00;0.00;;;;;;;16.06;88.64;96463.50;4915672;29;20152;-76
2023/10/20 08:20:41;;;;;;;0.00;0.00;;;;;;;15.74;90.27;96464.38;4921709;29;20039;-76
2023/10/20 08:23:08;;;;;;;0.00;0.00;;;;;;;15.46;91.82;96456.91;4951212;28;20046;-74
2023/10/20 08:25:37;;;;;;;0.00;0.00;;;;;;;16.18;94.25;96471.34;4945377;28;20042;-74
2023/10/20 08:28:03;;;;;;;0.00;0.00;;;;;;;17.50;85.21;96476.44;4954760;29;20114;-75
2023/10/20 08:30:28;;;;;;;0.00;0.00;;;;;;;17.12;81.60;96498.44;4943302;29;20870;-74
2023/10/20 08:32:56;;;;;;;0.00;0.00;;;;;;;16.38;84.47;96473.59;4953655;29;20390;-74
2023/10/20 08:35:31;;;;;;;0.00;0.00;;;;;;;16.18;86.74;96474.09;4945936;28;20046;-74
2023/10/20 08:37:57;;;;;;;0.00;0.00;;;;;;;16.22;86.80;96488.66;4951281;29;20052;-73
2023/10/20 08:40:22;;;;;;;0.00;0.00;;;;;;;15.97;86.83;96474.16;4944115;28;20027;-74
2023/10/20 08:42:51;;;;;;;0.00;0.00;;;;;;;15.93;86.80;96484.41;4915889;29;20535;-75
2023/10/20 08:45:17;;;;;;;0.00;0.00;;;;;;;17.83;82.00;96496.28;4944978;28;20039;-75
2023/10/20 08:47:45;;;;;;;0.00;0.00;;;;;;;19.45;70.55;96493.41;4935100;28;20047;-74
2023/10/20 08:50:13;;;;;;;0.00;0.00;;;;;;;18.47;71.96;96478.19;4942189;29;20023;-75
2023/10/20 08:52:39;;;;;;;0.00;0.00;;;;;;;17.65;75.53;96484.59;4942192;28;20039;-75
2023/10/20 08:55:13;;;;;;;0.00;0.00;;;;;;;17.15;77.98;96486.59;4948666;28;20035;-75
2023/10/20 08:57:44;;;;;;;0.00;0.00;;;;;;;16.71;80.38;96485.28;4937687;28;20027;-74
2023/10/20 09:00:19;;;;;;;0.00;0.00;;;;;;;16.95;81.52;96485.56;4964353;28;20063;-74
2023/10/20 09:02:44;;;;;;;0.00;0.00;;;;;;;17.88;76.28;96486.75;4932868;29;20031;-75
2023/10/20 09:05:12;;;;;;;0.00;0.00;;;;;;;17.58;75.86;96502.81;4940848;28;20398;-73
2023/10/20 09:07:37;;;;;;;0.00;0.00;;;;;;;17.92;77.10;96510.41;4949514;28;20097;-73
2023/10/20 09:10:03;;;;;;;0.00;0.00;;;;;;;19.80;68.73;96503.16;4925365;29;20035;-74
2023/10/20 09:12:31;;;;;;;0.00;0.00;;;;;;;20.43;65.88;96509.09;4939942;28;20397;-74
2023/10/20 09:15:03;;;;;;;0.00;0.00;;;;;;;22.22;58.63;96492.25;4946296;28;20751;-76
2023/10/20 09:17:33;;;;;;;0.00;0.00;;;;;;;21.84;56.12;96487.28;4938701;28;20090;-73
2023/10/20 09:20:12;;;;;;;0.00;0.00;;;;;;;22.83;55.23;96499.66;4941649;29;20027;-74
2023/10/20 09:22:38;;;;;;;0.00;0.00;;;;;;;22.33;54.65;96509.47;4945696;29;20038;-74
2023/10/20 09:25:21;;;;;;;0.00;0.00;;;;;;;21.46;56.91;96505.28;4950910;28;20067;-75
2023/10/20 09:27:46;;;;;;;0.00;0.00;;;;;;;22.83;56.50;96496.88;4944474;29;20032;-75
2023/10/20 09:30:15;;;;;;;0.00;0.00;;;;;;;23.25;53.40;96493.25;4942884;29;20039;-74
2023/10/20 09:32:40;;;;;;;0.00;0.00;;;;;;;21.85;55.74;96500.00;4966008;28;20023;-75
2023/10/20 09:35:08;;;;;;;0.00;0.00;;;;;;;20.65;59.97;96504.69;4942596;28;20035;-74
2023/10/20 09:37:38;;;;;;;0.00;0.00;;;;;;;20.17;63.58;96497.75;4959565;28;20028;-74
2023/10/20 09:40:09;;;;;;;0.00;0.00;;;;;;;19.78;65.33;96496.44;4942817;29;20094;-74
2023/10/20 09:43:22;;;;;;;0.00;0.00;;;;;;;19.32;66.27;96499.56;4958128;28;20031;-74
2023/10/20 09:45:58;;;;;;;0.00;0.00;;;;;;;18.74;69.13;96485.75;4929196;28;20047;-76
2023/10/20 09:48:25;;;;;;;0.00;0.00;;;;;;;18.55;71.04;96505.78;4951974;28;20023;-74
2023/10/20 09:50:51;;;;;;;0.00;0.00;;;;;;;18.77;70.50;96495.22;4942109;28;20023;-73
2023/10/20 09:53:17;;;;;;;0.00;0.00;;;;;;;18.98;70.06;96497.72;4947681;28;20138;-75
2023/10/20 09:55:45;;;;;;;0.00;0.00;;;;;;;19.21;68.58;96495.41;4942768;29;20039;-75
2023/10/20 09:58:14;;;;;;;0.00;0.00;;;;;;;19.71;68.71;96495.38;4940702;28;20413;-74
2023/10/20 10:00:43;;;;;;;0.00;0.00;;;;;;;21.37;62.99;96492.00;4943811;29;20027;-74
2023/10/20 10:03:12;;;;;;;0.00;0.00;;;;;;;22.74;57.58;96499.53;4947779;28;20055;-74
2023/10/20 10:05:39;;;;;;;0.00;0.00;;;;;;;22.60;55.92;96494.38;4938500;29;20026;-73
2023/10/20 10:08:07;;;;;;;0.00;0.00;;;;;;;21.59;57.96;96485.94;4942501;28;20031;-76
2023/10/20 10:10:36;;;;;;;0.00;0.00;;;;;;;20.68;61.48;96498.31;4946160;28;20045;-75
2023/10/20 10:13:13;;;;;;;0.00;0.00;;;;;;;19.81;63.53;96481.75;4935823;28;20046;-75
2023/10/20 10:15:46;;;;;;;0.00;0.00;;;;;;;20.09;63.29;96490.75;4925187;29;20047;-73
2023/10/20 10:18:17;;;;;;;0.00;0.00;;;;;;;20.35;63.73;96500.91;4936143;28;20119;-75
2023/10/20 10:20:49;;;;;;;0.00;0.00;;;;;;;20.01;63.26;96490.88;4956368;28;20038;-75
2023/10/20 10:23:27;;;;;;;0.00;0.00;;;;;;;20.22;63.17;96509.13;4954362;28;20038;-76
2023/10/20 10:25:53;;;;;;;0.00;0.00;;;;;;;20.50;64.57;96481.22;4941860;28;20027;-73
2023/10/20 10:28:20;;;;;;;0.00;0.00;;;;;;;23.66;56.04;96521.41;4917162;29;20433;-75
2023/10/20 10:30:58;;;;;;;0.00;0.00;;;;;;;24.18;52.58;96506.13;4943626;28;20027;-74
2023/10/20 10:33:27;;;;;;;0.00;0.00;;;;;;;23.13;53.14;96508.75;4937825;29;20027;-74
2023/10/20 10:36:10;;;;;;;0.00;0.00;;;;;;;22.20;54.71;96501.03;4940991;29;20027;-75
2023/10/20 10:38:43;;;;;;;0.00;0.00;;;;;;;21.13;58.16;96510.03;4951942;28;20038;-74
2023/10/20 10:41:08;;;;;;;0.00;0.00;;;;;;;20.21;60.45;96492.91;4947401;28;20454;-75
2023/10/20 10:43:34;;;;;;;0.00;0.00;;;;;;;20.46;61.87;96528.47;4939483;29;20023;-75
2023/10/20 10:45:59;;;;;;;0.00;0.00;;;;;;;19.97;62.59;96517.88;4942644;28;20023;-73
2023/10/20 10:48:29;;;;;;;0.00;0.00;;;;;;;19.80;63.54;96514.25;4943251;28;20023;-73
2023/10/20 10:50:59;;;;;;;0.00;0.00;;;;;;;19.94;63.94;96534.59;4951392;28;20410;-74
2023/10/20 10:53:26;;;;;;;0.00;0.00;;;;;;;19.71;63.80;96536.94;4929269;28;20148;-74
2023/10/20 10:55:54;;;;;;;0.00;0.00;;;;;;;19.06;65.49;96508.69;4900843;29;20047;-75
2023/10/20 10:58:30;;;;;;;0.00;0.00;;;;;;;18.88;67.17;96529.09;4909500;29;20023;-74
2023/10/20 11:00:56;;;;;;;0.00;0.00;;;;;;;18.67;68.17;96521.81;4903018;29;20066;-75
2023/10/20 11:03:25;;;;;;;0.00;0.00;;;;;;;18.40;68.62;96505.16;4909359;29;20059;-74
2023/10/20 11:05:56;;;;;;;0.00;0.00;;;;;;;18.08;69.29;96506.31;4908324;29;20054;-74
2023/10/20 11:08:29;;;;;;;0.00;0.00;;;;;;;17.69;71.16;96501.94;4921535;29;20038;-74
2023/10/20 11:11:04;;;;;;;0.00;0.00;;;;;;;17.44;72.26;96530.56;4912634;29;20395;-74
2023/10/20 11:13:32;;;;;;;0.00;0.00;;;;;;;17.06;74.19;96500.06;4883586;29;20027;-74
2023/10/20 11:16:06;;;;;;;0.00;0.00;;;;;;;17.55;74.46;96519.41;4883719;29;20394;-74
2023/10/20 11:18:32;;;;;;;0.00;0.00;;;;;;;17.87;73.71;96519.13;4917562;29;20027;-75
2023/10/20 11:21:00;;;;;;;0.00;0.00;;;;;;;17.85;72.46;96507.69;4924230;29;20500;-75
2023/10/20 11:23:31;;;;;;;0.00;0.00;;;;;;;17.94;72.80;96527.38;4906855;29;20173;-74
2023/10/20 11:25:57;;;;;;;0.00;0.00;;;;;;;18.13;72.59;96530.72;4910162;29;20031;-75
2023/10/20 11:28:23;;;;;;;0.00;0.00;;;;;;;18.42;71.93;96533.97;4900942;29;20030;-76
2023/10/20 11:30:49;;;;;;;0.00;0.00;;;;;;;18.43;71.65;96541.06;4907804;29;20087;-75
2023/10/20 11:33:18;;;;;;;0.00;0.00;;;;;;;18.22;71.68;96528.25;4907711;29;20424;-75
2023/10/20 11:35:56;;;;;;;0.00;0.00;;;;;;;18.17;72.05;96531.50;4907904;29;20099;-75
2023/10/20 11:38:22;;;;;;;0.00;0.00;;;;;;;17.92;72.30;96509.63;4900115;29;20043;-77
2023/10/20 11:40:50;;;;;;;0.00;0.00;;;;;;;18.02;72.75;96507.94;4896964;29;20123;-74
2023/10/20 11:43:36;;;;;;;0.00;0.00;;;;;;;18.43;72.57;96504.34;4909768;29;20051;-77
2023/10/20 11:46:01;;;;;;;0.00;0.00;;;;;;;19.46;70.64;96495.00;4924796;29;20090;-75
2023/10/20 11:48:29;;;;;;;0.00;0.00;;;;;;;20.89;65.35;96507.38;4925017;29;20477;-78
2023/10/20 11:50:54;;;;;;;0.00;0.00;;;;;;;21.46;60.95;96510.84;4919028;29;20028;-75
2023/10/20 11:53:45;;;;;;;0.00;0.00;;;;;;;21.27;60.33;96506.91;4930213;29;20047;-73
2023/10/20 12:03:00;;;;;;;0.00;0.00;;;;;;;20.81;59.68;96461.53;4875395;28;20538;-75